createdAt,value
2023-03-10T00:01:34.295Z,72.50
2023-03-10T00:03:07.015Z,72.50
2023-03-10T00:04:40.310Z,72.40
2023-03-10T00:06:18.382Z,72.50
2023-03-10T00:07:50.846Z,72.50
2023-03-10T00:09:24.042Z,72.30
2023-03-10T00:10:57.362Z,72.30
2023-03-10T00:12:30.569Z,72.30
2023-03-10T00:14:03.958Z,72.40
2023-03-10T00:15:39.301Z,72.50
2023-03-10T00:17:12.530Z,72.60
2023-03-10T00:18:46.201Z,72.60
2023-03-10T00:20:18.579Z,72.60
2023-03-10T00:21:51.759Z,72.70
2023-03-10T00:23:25.011Z,72.70
2023-03-10T00:24:58.515Z,72.80
2023-03-10T00:26:32.078Z,72.80
2023-03-10T00:28:05.423Z,72.80
2023-03-10T00:29:38.523Z,72.90
2023-03-10T00:31:16.590Z,73.70
2023-03-10T00:32:50.926Z,73.00
2023-03-10T00:34:24.150Z,72.80
2023-03-10T00:36:08.405Z,72.90
2023-03-10T00:37:41.709Z,73.00
2023-03-10T00:39:14.819Z,73.10
2023-03-10T00:40:47.972Z,72.80
2023-03-10T00:42:21.980Z,72.80
2023-03-10T00:43:55.721Z,72.70
2023-03-10T00:45:28.907Z,73.00
2023-03-10T00:47:04.237Z,72.70
2023-03-10T00:48:38.365Z,72.90
2023-03-10T00:50:13.183Z,72.90
2023-03-10T00:51:46.320Z,72.80
2023-03-10T00:53:20.127Z,73.00
2023-03-10T00:54:53.917Z,72.70
2023-03-10T00:56:27.542Z,72.60
2023-03-10T00:58:00.623Z,72.70
2023-03-10T00:59:47.822Z,72.70
2023-03-10T01:01:26.824Z,72.70
2023-03-10T01:03:01.408Z,72.80
2023-03-10T01:04:34.641Z,72.80
2023-03-10T01:06:07.172Z,72.80
2023-03-10T01:07:40.492Z,72.80
2023-03-10T01:09:14.122Z,72.80
2023-03-10T01:10:48.159Z,72.80
2023-03-10T01:12:22.577Z,72.90
2023-03-10T01:14:00.035Z,72.80
2023-03-10T01:15:33.296Z,72.90
2023-03-10T01:17:06.723Z,72.80
2023-03-10T01:18:41.482Z,72.80
2023-03-10T01:20:16.893Z,72.80
2023-03-10T01:21:50.019Z,72.90
2023-03-10T01:23:28.986Z,72.80
2023-03-10T01:25:03.316Z,72.80
2023-03-10T01:26:37.092Z,72.70
2023-03-10T01:28:09.394Z,72.70
2023-03-10T01:29:43.678Z,72.70
2023-03-10T01:31:18.462Z,72.60
2023-03-10T01:32:51.714Z,72.60
2023-03-10T01:34:26.260Z,72.70
2023-03-10T01:36:00.064Z,72.60
2023-03-10T01:37:33.668Z,72.50
2023-03-10T01:39:07.450Z,72.50
2023-03-10T01:40:40.762Z,72.50
2023-03-10T01:42:14.098Z,72.40
2023-03-10T01:43:50.043Z,72.30
2023-03-10T01:46:30.420Z,72.30
2023-03-10T01:48:07.582Z,72.30
2023-03-10T01:49:45.146Z,72.10
2023-03-10T01:51:18.847Z,72.10
2023-03-10T01:52:58.228Z,72.00
2023-03-10T01:54:43.938Z,72.00
2023-03-10T01:56:17.454Z,72.00
2023-03-10T01:57:55.553Z,72.10
2023-03-10T01:59:30.064Z,72.00
2023-03-10T02:01:02.834Z,72.00
2023-03-10T02:02:41.653Z,71.90
2023-03-10T02:04:30.949Z,71.90
2023-03-10T02:06:11.053Z,71.90
2023-03-10T02:07:45.398Z,71.90
2023-03-10T02:09:20.809Z,71.90
2023-03-10T02:10:54.384Z,71.80
2023-03-10T02:12:28.595Z,71.80
2023-03-10T02:14:06.396Z,71.80
2023-03-10T02:15:42.643Z,71.80
2023-03-10T02:17:20.719Z,71.70
2023-03-10T02:18:54.066Z,71.70
2023-03-10T02:20:38.281Z,71.80
2023-03-10T02:22:15.539Z,71.80
2023-03-10T02:24:01.338Z,71.80
2023-03-10T02:25:46.969Z,71.80
2023-03-10T02:27:25.429Z,71.80
2023-03-10T02:29:03.195Z,71.90
2023-03-10T02:30:41.116Z,71.80
2023-03-10T02:32:16.669Z,71.80
2023-03-10T02:33:52.613Z,71.80
2023-03-10T02:35:26.002Z,71.70
2023-03-10T02:37:03.770Z,71.70
2023-03-10T02:38:37.101Z,71.70
2023-03-10T02:40:37.575Z,71.70
2023-03-10T02:42:25.378Z,71.80
2023-03-10T02:44:03.696Z,71.80
2023-03-10T02:45:41.619Z,71.80
2023-03-10T02:47:15.993Z,71.70
2023-03-10T02:48:48.380Z,71.50
2023-03-10T02:50:31.235Z,71.50
2023-03-10T02:52:10.858Z,71.50
2023-03-10T02:53:44.668Z,71.40
2023-03-10T02:55:18.583Z,71.30
2023-03-10T02:56:52.329Z,71.30
2023-03-10T02:58:32.401Z,71.20
2023-03-10T03:00:09.245Z,71.20
2023-03-10T03:01:42.381Z,71.30
2023-03-10T03:03:17.976Z,71.20
2023-03-10T03:04:52.357Z,71.20
2023-03-10T03:06:26.435Z,71.20
2023-03-10T03:07:59.591Z,71.10
2023-03-10T03:09:32.977Z,71.10
2023-03-10T03:11:05.819Z,71.10
2023-03-10T03:12:39.441Z,71.00
2023-03-10T03:14:14.255Z,71.00
2023-03-10T03:15:48.647Z,71.10
2023-03-10T03:17:21.880Z,70.90
2023-03-10T03:18:55.056Z,70.80
2023-03-10T03:20:31.291Z,70.70
2023-03-10T03:22:04.495Z,70.70
2023-03-10T03:23:37.975Z,70.60
2023-03-10T03:25:16.202Z,70.60
2023-03-10T03:26:49.615Z,70.50
2023-03-10T03:28:25.790Z,70.50
2023-03-10T03:30:00.899Z,70.50
2023-03-10T03:31:34.514Z,70.40
2023-03-10T03:33:15.618Z,70.30
2023-03-10T03:34:49.764Z,70.20
2023-03-10T03:36:23.118Z,70.30
2023-03-10T03:37:58.054Z,70.20
2023-03-10T03:39:31.660Z,70.10
2023-03-10T03:41:09.012Z,70.10
2023-03-10T03:42:47.042Z,70.10
2023-03-10T03:44:19.429Z,70.10
2023-03-10T03:45:54.470Z,70.00
2023-03-10T03:47:27.680Z,70.00
2023-03-10T03:49:01.184Z,70.00
2023-03-10T03:50:34.787Z,70.00
2023-03-10T03:52:14.100Z,69.80
2023-03-10T03:53:47.551Z,69.90
2023-03-10T03:55:21.458Z,69.80
2023-03-10T03:56:57.371Z,70.00
2023-03-10T03:58:30.487Z,70.00
2023-03-10T04:00:07.626Z,69.90
2023-03-10T04:01:47.224Z,69.80
2023-03-10T04:03:20.740Z,69.70
2023-03-10T04:04:55.606Z,69.80
2023-03-10T04:06:29.154Z,69.80
2023-03-10T04:08:02.640Z,69.80
2023-03-10T04:09:39.146Z,69.80
2023-03-10T04:11:12.381Z,69.80
2023-03-10T04:12:48.452Z,69.70
2023-03-10T04:14:21.762Z,69.70
2023-03-10T04:15:59.380Z,69.70
2023-03-10T04:17:39.735Z,69.70
2023-03-10T04:19:13.483Z,69.90
2023-03-10T04:20:50.355Z,70.00
2023-03-10T04:22:25.395Z,70.00
2023-03-10T04:23:59.099Z,70.00
2023-03-10T04:25:36.238Z,69.90
2023-03-10T04:27:11.368Z,69.90
2023-03-10T04:28:44.000Z,70.00
2023-03-10T04:30:19.145Z,69.80
2023-03-10T04:32:05.232Z,70.00
2023-03-10T04:33:42.864Z,69.80
2023-03-10T04:35:16.062Z,70.00
2023-03-10T04:36:49.121Z,70.00
2023-03-10T04:38:23.932Z,69.80
2023-03-10T04:39:57.273Z,69.70
2023-03-10T04:41:30.422Z,69.60
2023-03-10T04:43:04.752Z,69.50
2023-03-10T04:44:38.240Z,69.40
2023-03-10T04:46:13.254Z,69.20
2023-03-10T04:47:47.716Z,69.20
2023-03-10T04:49:22.531Z,70.00
2023-03-10T04:51:01.206Z,69.20
2023-03-10T04:52:38.052Z,69.20
2023-03-10T04:54:11.584Z,69.20
2023-03-10T04:55:45.925Z,69.20
2023-03-10T04:57:19.271Z,69.20
2023-03-10T04:58:52.475Z,69.20
2023-03-10T05:00:26.071Z,69.20
2023-03-10T05:01:58.871Z,69.10
2023-03-10T05:03:32.104Z,69.20
2023-03-10T05:05:07.941Z,69.10
2023-03-10T05:06:42.468Z,69.10
2023-03-10T05:08:37.587Z,69.00
2023-03-10T05:10:13.029Z,68.90
2023-03-10T05:11:46.257Z,68.80
2023-03-10T05:13:19.969Z,68.70
2023-03-10T05:14:53.043Z,68.70
2023-03-10T05:16:26.737Z,68.70
2023-03-10T05:18:00.292Z,68.50
2023-03-10T05:19:35.834Z,68.60
2023-03-10T05:21:12.161Z,68.30
2023-03-10T05:22:46.141Z,68.40
2023-03-10T05:24:19.245Z,68.30
2023-03-10T05:25:52.595Z,68.30
2023-03-10T05:27:27.230Z,68.30
2023-03-10T05:29:01.679Z,68.30
2023-03-10T05:30:45.611Z,68.30
2023-03-10T05:32:21.503Z,68.50
2023-03-10T05:33:56.551Z,68.50
2023-03-10T05:35:30.264Z,68.50
2023-03-10T05:37:06.028Z,68.50
2023-03-10T05:38:39.849Z,68.60
2023-03-10T05:40:19.596Z,68.60
2023-03-10T05:41:53.460Z,68.60
2023-03-10T05:43:27.980Z,68.60
2023-03-10T05:45:01.312Z,68.50
2023-03-10T05:46:34.635Z,68.40
2023-03-10T05:48:08.492Z,68.40
2023-03-10T05:49:42.022Z,68.40
2023-03-10T05:51:15.385Z,68.50
2023-03-10T05:52:52.663Z,68.60
2023-03-10T05:54:27.217Z,68.50
2023-03-10T05:56:00.793Z,68.60
2023-03-10T05:57:33.971Z,68.60
2023-03-10T05:59:07.760Z,68.60
2023-03-10T06:00:42.544Z,68.70
2023-03-10T06:02:15.599Z,68.70
2023-03-10T06:03:48.922Z,68.60
2023-03-10T06:05:22.126Z,68.60
2023-03-10T06:06:56.614Z,68.50
2023-03-10T06:08:32.026Z,68.60
2023-03-10T06:10:05.775Z,68.60
2023-03-10T06:11:38.947Z,68.60
2023-03-10T06:13:12.274Z,68.60
2023-03-10T06:14:45.471Z,68.60
2023-03-10T06:16:19.291Z,68.70
2023-03-10T06:17:52.492Z,68.70
2023-03-10T06:19:26.372Z,68.70
2023-03-10T06:20:59.528Z,68.80
2023-03-10T06:22:32.647Z,68.90
2023-03-10T06:24:07.559Z,68.90
2023-03-10T06:25:40.913Z,69.00
2023-03-10T06:27:14.059Z,69.00
2023-03-10T06:28:48.173Z,68.40
2023-03-10T06:30:21.821Z,69.20
2023-03-10T06:31:55.112Z,69.20
2023-03-10T06:33:29.925Z,69.20
2023-03-10T06:35:03.040Z,69.20
2023-03-10T06:36:37.372Z,69.10
2023-03-10T06:38:10.743Z,69.20
2023-03-10T06:39:45.174Z,69.10
2023-03-10T06:41:18.798Z,69.20
2023-03-10T06:42:51.907Z,69.20
2023-03-10T06:44:25.031Z,69.20
2023-03-10T06:45:58.410Z,69.30
2023-03-10T06:47:31.631Z,69.20
2023-03-10T06:49:05.045Z,69.20
2023-03-10T06:50:42.080Z,69.30
2023-03-10T06:52:15.574Z,69.40
2023-03-10T06:53:50.098Z,69.50
2023-03-10T06:55:24.755Z,69.50
2023-03-10T06:56:58.009Z,69.60
2023-03-10T06:58:32.772Z,69.70
2023-03-10T07:00:11.283Z,69.70
2023-03-10T07:01:44.573Z,69.90
2023-03-10T07:03:18.420Z,69.70
2023-03-10T07:04:51.668Z,69.80
2023-03-10T07:06:26.210Z,69.90
2023-03-10T07:07:59.290Z,70.00
2023-03-10T07:09:32.501Z,70.10
2023-03-10T07:11:07.036Z,70.20
2023-03-10T07:12:40.248Z,70.10
2023-03-10T07:14:13.317Z,70.10
2023-03-10T07:15:47.485Z,70.30
2023-03-10T07:17:20.598Z,70.30
2023-03-10T07:18:53.782Z,70.30
2023-03-10T07:20:26.936Z,70.30
2023-03-10T07:22:00.101Z,70.40
2023-03-10T07:23:34.024Z,70.50
2023-03-10T07:25:08.460Z,70.40
2023-03-10T07:26:43.215Z,70.60
2023-03-10T07:28:16.364Z,70.50
2023-03-10T07:29:49.840Z,70.50
2023-03-10T07:31:23.379Z,70.50
2023-03-10T07:32:56.609Z,70.50
2023-03-10T07:34:29.968Z,70.50
2023-03-10T07:36:07.540Z,70.50
2023-03-10T07:37:41.735Z,70.70
2023-03-10T07:39:14.957Z,70.70
2023-03-10T07:40:48.075Z,70.80
2023-03-10T07:42:22.746Z,70.70
2023-03-10T07:43:56.211Z,70.70
2023-03-10T07:45:30.850Z,70.60
2023-03-10T07:47:04.234Z,70.70
2023-03-10T07:48:37.504Z,70.70
2023-03-10T07:50:12.496Z,70.50
2023-03-10T07:51:45.566Z,70.50
2023-03-10T07:53:18.726Z,70.60
2023-03-10T07:54:52.007Z,70.40
2023-03-10T07:56:25.394Z,70.50
2023-03-10T07:58:01.122Z,70.50
2023-03-10T07:59:34.518Z,70.50
2023-03-10T08:01:10.018Z,70.50
2023-03-10T08:02:44.006Z,70.50
2023-03-10T08:04:17.398Z,70.40
2023-03-10T08:05:51.261Z,70.50
2023-03-10T08:07:27.457Z,70.50
2023-03-10T08:09:00.609Z,70.60
2023-03-10T08:10:33.816Z,70.60
2023-03-10T08:12:08.493Z,70.60
2023-03-10T08:13:45.274Z,70.50
2023-03-10T08:15:18.833Z,70.40
2023-03-10T08:16:52.783Z,70.40
2023-03-10T08:18:26.116Z,70.40
2023-03-10T08:19:59.257Z,70.50
2023-03-10T08:21:32.323Z,70.50
2023-03-10T08:23:05.467Z,70.40
2023-03-10T08:24:39.375Z,70.50
2023-03-10T08:26:16.918Z,70.80
2023-03-10T08:27:51.149Z,70.70
2023-03-10T08:29:26.000Z,70.60
2023-03-10T08:31:05.385Z,70.50
2023-03-10T08:32:38.695Z,70.50
2023-03-10T08:34:11.830Z,70.40
2023-03-10T08:35:45.194Z,70.50
2023-03-10T08:37:18.735Z,70.60
2023-03-10T08:38:54.048Z,70.70
2023-03-10T08:40:27.746Z,70.60
2023-03-10T08:42:00.876Z,70.70
2023-03-10T08:43:34.377Z,70.70
2023-03-10T08:45:09.776Z,70.60
2023-03-10T08:46:46.637Z,70.50
2023-03-10T08:48:19.951Z,70.40
2023-03-10T08:49:53.081Z,70.20
2023-03-10T08:51:27.572Z,70.20
2023-03-10T08:53:00.754Z,70.00
2023-03-10T08:54:33.908Z,70.00
2023-03-10T08:56:08.292Z,69.70
2023-03-10T08:57:41.501Z,69.50
2023-03-10T08:59:14.935Z,69.50
2023-03-10T09:00:49.493Z,69.50
2023-03-10T09:02:23.028Z,69.50
2023-03-10T09:03:56.835Z,69.40
2023-03-10T09:05:30.060Z,69.10
2023-03-10T09:07:03.155Z,69.20
2023-03-10T09:08:36.531Z,69.00
2023-03-10T09:10:10.727Z,68.90
2023-03-10T09:11:44.937Z,69.10
2023-03-10T09:13:18.072Z,69.10
2023-03-10T09:14:51.464Z,69.20
2023-03-10T09:16:28.449Z,69.10
2023-03-10T09:18:02.136Z,69.10
2023-03-10T09:19:35.568Z,68.90
2023-03-10T09:21:09.862Z,68.90
2023-03-10T09:22:43.485Z,68.80
2023-03-10T09:24:17.931Z,68.60
2023-03-10T09:25:51.004Z,68.60
2023-03-10T09:27:24.356Z,68.50
2023-03-10T09:28:57.550Z,68.30
2023-03-10T09:30:31.000Z,68.10
2023-03-10T09:32:08.644Z,68.20
2023-03-10T09:33:42.008Z,68.20
2023-03-10T09:35:15.202Z,68.30
2023-03-10T09:36:48.402Z,68.40
2023-03-10T09:38:21.813Z,68.50
2023-03-10T09:39:54.945Z,68.40
2023-03-10T09:42:01.705Z,68.00
2023-03-10T09:43:40.858Z,67.50
2023-03-10T09:45:39.352Z,67.30
2023-03-10T09:47:42.467Z,67.20
2023-03-10T09:49:22.150Z,67.20
2023-03-10T09:50:56.711Z,67.40
2023-03-10T09:52:42.466Z,67.50
2023-03-10T09:54:33.901Z,67.20
2023-03-10T09:56:13.578Z,67.00
2023-03-10T09:57:50.750Z,67.10
2023-03-10T09:59:33.146Z,67.10
2023-03-10T10:01:15.845Z,66.90
2023-03-10T10:02:59.085Z,66.90
2023-03-10T10:04:40.398Z,67.00
2023-03-10T10:06:21.047Z,67.00
2023-03-10T10:07:57.828Z,67.00
2023-03-10T10:09:43.048Z,67.00
2023-03-10T10:11:19.473Z,66.90
2023-03-10T10:12:55.499Z,66.80
2023-03-10T10:14:31.647Z,66.50
2023-03-10T10:16:28.214Z,66.30
2023-03-10T10:18:20.191Z,66.10
2023-03-10T10:19:57.788Z,65.90
2023-03-10T10:21:43.278Z,65.70
2023-03-10T10:23:22.184Z,65.60
2023-03-10T10:25:17.529Z,65.70
2023-03-10T10:26:51.074Z,65.70
2023-03-10T10:28:37.766Z,65.80
2023-03-10T10:30:32.691Z,65.40
2023-03-10T10:32:09.776Z,64.70
2023-03-10T10:34:00.223Z,64.80
2023-03-10T10:35:36.817Z,64.30
2023-03-10T10:37:28.193Z,64.60
2023-03-10T10:39:02.376Z,64.20
2023-03-10T10:40:48.537Z,64.60
2023-03-10T10:42:25.679Z,64.40
2023-03-10T10:44:09.410Z,64.60
2023-03-10T10:45:42.687Z,64.30
2023-03-10T10:47:31.612Z,64.20
2023-03-10T10:49:19.104Z,64.30
2023-03-10T10:50:54.914Z,63.90
2023-03-10T10:52:28.108Z,63.90
2023-03-10T10:54:04.914Z,63.60
2023-03-10T10:55:38.258Z,63.60
2023-03-10T10:57:20.847Z,63.60
2023-03-10T10:59:08.427Z,63.50
2023-03-10T11:00:41.965Z,63.40
2023-03-10T11:02:30.999Z,63.70
2023-03-10T11:04:09.072Z,62.30
2023-03-10T11:05:42.642Z,62.50
2023-03-10T11:07:25.954Z,62.10
2023-03-10T11:09:08.904Z,61.70
2023-03-10T11:10:43.555Z,61.40
2023-03-10T11:12:22.704Z,61.40
2023-03-10T11:14:13.779Z,61.00
2023-03-10T11:15:59.734Z,60.60
2023-03-10T11:17:41.416Z,60.90
2023-03-10T11:19:29.421Z,61.30
2023-03-10T11:21:13.420Z,61.40
2023-03-10T11:22:52.717Z,62.00
2023-03-10T11:24:36.027Z,61.30
2023-03-10T11:26:35.605Z,60.90
2023-03-10T11:28:39.952Z,60.10
2023-03-10T11:30:21.024Z,59.70
2023-03-10T11:32:06.933Z,59.80
2023-03-10T11:33:51.881Z,59.50
2023-03-10T11:35:33.614Z,59.60
2023-03-10T11:37:18.442Z,59.50
2023-03-10T11:38:59.575Z,59.20
2023-03-10T11:40:47.720Z,59.20
2023-03-10T11:42:32.414Z,59.10
2023-03-10T11:44:17.025Z,59.10
2023-03-10T11:45:54.254Z,58.90
2023-03-10T11:47:57.667Z,59.10
2023-03-10T11:49:38.149Z,58.40
2023-03-10T11:51:19.248Z,58.50
2023-03-10T11:53:00.766Z,58.20
2023-03-10T11:54:39.502Z,58.80
2023-03-10T11:56:16.529Z,58.80
2023-03-10T11:57:57.107Z,58.80
2023-03-10T11:59:36.281Z,58.40
2023-03-10T12:01:12.980Z,58.30
2023-03-10T12:03:05.120Z,58.20
2023-03-10T12:04:46.179Z,57.70
2023-03-10T12:06:27.979Z,57.50
2023-03-10T12:08:06.505Z,57.40
2023-03-10T12:09:46.355Z,57.10
2023-03-10T12:11:23.664Z,56.90
2023-03-10T12:12:58.364Z,56.90
2023-03-10T12:14:32.552Z,56.70
2023-03-10T12:16:08.458Z,56.00
2023-03-10T12:17:42.656Z,56.90
2023-03-10T12:19:15.744Z,57.20
2023-03-10T12:21:21.454Z,57.20
2023-03-10T12:22:56.145Z,57.30
2023-03-10T12:24:46.901Z,57.60
2023-03-10T12:27:05.092Z,57.50
2023-03-10T12:28:38.310Z,57.90
2023-03-10T12:30:45.621Z,58.30
2023-03-10T12:32:42.421Z,58.70
2023-03-10T12:34:22.143Z,58.60
2023-03-10T12:36:02.272Z,59.40
2023-03-10T12:37:36.764Z,59.00
2023-03-10T12:39:38.748Z,59.30
2023-03-10T12:41:13.689Z,59.80
2023-03-10T12:42:47.267Z,59.80
2023-03-10T12:44:50.513Z,59.90
2023-03-10T12:46:40.154Z,60.20
2023-03-10T12:48:22.146Z,60.10
2023-03-10T12:50:02.548Z,60.40
2023-03-10T12:51:42.889Z,60.70
2023-03-10T12:53:38.856Z,60.70
2023-03-10T12:55:24.092Z,62.10
2023-03-10T12:57:10.736Z,61.00
2023-03-10T12:58:49.053Z,61.30
2023-03-10T13:00:49.260Z,61.30
2023-03-10T13:02:33.932Z,61.50
2023-03-10T13:04:09.344Z,61.30
2023-03-10T13:05:57.744Z,62.00
2023-03-10T13:07:32.300Z,61.40
2023-03-10T13:09:24.127Z,61.40
2023-03-10T13:11:00.281Z,61.40
2023-03-10T13:12:50.229Z,61.60
2023-03-10T13:14:25.412Z,62.00
2023-03-10T13:16:00.420Z,62.10
2023-03-10T13:17:34.054Z,62.40
2023-03-10T13:19:07.560Z,62.60
2023-03-10T13:20:40.701Z,62.60
2023-03-10T13:22:18.449Z,62.50
2023-03-10T13:23:51.568Z,62.30
2023-03-10T13:25:27.147Z,62.40
2023-03-10T13:27:06.503Z,62.80
2023-03-10T13:28:40.037Z,63.20
2023-03-10T13:30:19.896Z,63.30
2023-03-10T13:31:55.301Z,63.50
2023-03-10T13:33:28.652Z,63.30
2023-03-10T13:35:22.722Z,62.90
2023-03-10T13:37:05.770Z,63.80
2023-03-10T13:38:43.427Z,63.10
2023-03-10T13:40:19.073Z,63.30
2023-03-10T13:41:57.546Z,63.30
2023-03-10T13:43:38.458Z,63.20
2023-03-10T13:45:23.436Z,63.30
2023-03-10T13:47:00.580Z,63.30
2023-03-10T13:48:35.105Z,63.30
2023-03-10T13:50:16.672Z,63.20
2023-03-10T13:51:58.165Z,62.80
2023-03-10T13:53:31.347Z,62.50
2023-03-10T13:55:14.945Z,62.60
2023-03-10T13:56:49.782Z,63.10
2023-03-10T13:58:25.407Z,63.20
2023-03-10T14:00:00.242Z,63.10
2023-03-10T14:01:38.114Z,63.20
2023-03-10T14:03:11.539Z,63.20
2023-03-10T14:04:49.602Z,63.10
2023-03-10T14:06:23.423Z,63.30
2023-03-10T14:08:02.295Z,63.30
2023-03-10T14:09:35.530Z,63.30
2023-03-10T14:11:36.253Z,63.20
2023-03-10T14:13:44.567Z,63.10
2023-03-10T14:15:27.203Z,63.10
2023-03-10T14:17:02.567Z,63.30
2023-03-10T14:18:37.749Z,63.40
2023-03-10T14:20:12.658Z,63.30
2023-03-10T14:21:59.955Z,63.50
2023-03-10T14:23:37.960Z,63.80
2023-03-10T14:25:18.009Z,63.80
2023-03-10T14:26:51.259Z,64.00
2023-03-10T14:28:28.758Z,64.10
2023-03-10T14:30:18.457Z,64.20
2023-03-10T14:31:52.267Z,64.30
2023-03-10T14:33:25.563Z,64.30
2023-03-10T14:34:58.736Z,64.40
2023-03-10T14:36:31.944Z,64.50
2023-03-10T14:38:05.167Z,64.70
2023-03-10T14:39:38.328Z,64.70
2023-03-10T14:41:13.868Z,64.80
2023-03-10T14:42:48.752Z,65.00
2023-03-10T14:44:21.725Z,64.90
2023-03-10T14:46:00.017Z,65.00
2023-03-10T14:47:34.220Z,64.90
2023-03-10T14:49:14.068Z,65.00
2023-03-10T14:50:48.827Z,65.00
2023-03-10T14:52:22.070Z,65.00
2023-03-10T14:53:55.170Z,65.10
2023-03-10T14:55:29.618Z,65.10
2023-03-10T14:57:02.850Z,64.80
2023-03-10T14:58:45.649Z,64.50
2023-03-10T15:00:22.846Z,64.40
2023-03-10T15:01:58.888Z,63.70
2023-03-10T15:03:32.111Z,63.20
2023-03-10T15:05:06.166Z,62.80
2023-03-10T15:06:39.297Z,62.50
2023-03-10T15:08:12.425Z,62.50
2023-03-10T15:09:46.047Z,62.10
2023-03-10T15:11:35.697Z,62.00
2023-03-10T15:13:13.473Z,61.70
2023-03-10T15:14:54.384Z,61.40
2023-03-10T15:16:27.540Z,61.30
2023-03-10T15:18:02.069Z,60.90
2023-03-10T15:19:35.788Z,60.60
2023-03-10T15:21:09.097Z,60.70
2023-03-10T15:22:42.172Z,60.90
2023-03-10T15:24:15.332Z,60.90
2023-03-10T15:25:49.143Z,61.20
2023-03-10T15:27:22.269Z,61.30
2023-03-10T15:28:55.354Z,61.30
2023-03-10T15:30:31.417Z,61.50
2023-03-10T15:32:04.574Z,61.80
2023-03-10T15:33:39.181Z,61.90
2023-03-10T15:35:12.787Z,61.90
2023-03-10T15:36:45.914Z,62.10
2023-03-10T15:38:19.071Z,62.30
2023-03-10T15:39:52.268Z,62.20
2023-03-10T15:41:26.010Z,62.50
2023-03-10T15:43:00.685Z,62.60
2023-03-10T15:44:33.765Z,62.60
2023-03-10T15:46:09.450Z,62.50
2023-03-10T15:47:42.972Z,62.80
2023-03-10T15:49:17.676Z,62.60
2023-03-10T15:50:50.753Z,62.10
2023-03-10T15:52:24.261Z,61.90
2023-03-10T15:53:57.640Z,62.80
2023-03-10T15:55:30.774Z,61.70
2023-03-10T15:57:03.875Z,61.70
2023-03-10T15:58:37.700Z,61.60
2023-03-10T16:00:12.778Z,62.00
2023-03-10T16:01:46.072Z,62.10
2023-03-10T16:03:19.284Z,62.00
2023-03-10T16:04:53.839Z,62.10
2023-03-10T16:06:27.716Z,62.50
2023-03-10T16:08:00.832Z,62.80
2023-03-10T16:09:34.813Z,62.90
2023-03-10T16:11:16.007Z,63.20
2023-03-10T16:12:49.365Z,63.30
2023-03-10T16:14:22.828Z,64.20
2023-03-10T16:15:59.837Z,63.50
2023-03-10T16:17:33.089Z,63.60
2023-03-10T16:19:06.223Z,63.70
2023-03-10T16:20:40.771Z,63.70
2023-03-10T16:22:19.303Z,63.80
2023-03-10T16:23:55.981Z,63.90
2023-03-10T16:25:44.408Z,64.80
2023-03-10T16:27:32.842Z,64.10
2023-03-10T16:29:06.624Z,64.00
2023-03-10T16:30:40.253Z,63.90
2023-03-10T16:32:19.867Z,64.00
2023-03-10T16:34:01.404Z,64.20
2023-03-10T16:35:40.782Z,64.30
2023-03-10T16:37:13.982Z,64.30
2023-03-10T16:38:47.620Z,64.30
2023-03-10T16:40:21.041Z,64.30
2023-03-10T16:41:54.141Z,64.40
2023-03-10T16:43:31.131Z,64.30
2023-03-10T16:45:06.551Z,65.20
2023-03-10T16:46:40.592Z,64.40
2023-03-10T16:48:13.764Z,64.50
2023-03-10T16:49:47.095Z,64.50
2023-03-10T16:51:27.429Z,64.60
2023-03-10T16:53:00.647Z,64.70
2023-03-10T16:54:33.719Z,64.80
2023-03-10T16:56:08.098Z,64.90
2023-03-10T16:57:41.159Z,64.80
2023-03-10T16:59:19.620Z,64.70
2023-03-10T17:00:52.858Z,64.90
2023-03-10T17:02:31.544Z,64.80
2023-03-10T17:04:04.696Z,65.00
2023-03-10T17:05:39.094Z,64.90
2023-03-10T17:07:14.181Z,65.10
2023-03-10T17:08:47.567Z,65.30
2023-03-10T17:10:20.786Z,65.20
2023-03-10T17:11:55.482Z,64.70
2023-03-10T17:13:28.708Z,64.00
2023-03-10T17:15:02.043Z,63.50
2023-03-10T17:16:37.094Z,63.10
2023-03-10T17:18:10.610Z,62.10
2023-03-10T17:19:43.792Z,61.10
2023-03-10T17:21:20.524Z,60.00
2023-03-10T17:22:55.042Z,59.50
2023-03-10T17:24:28.564Z,59.00
2023-03-10T17:26:01.645Z,59.00
2023-03-10T17:27:35.032Z,59.30
2023-03-10T17:29:08.312Z,59.20
2023-03-10T17:30:42.011Z,58.90
2023-03-10T17:32:15.720Z,58.80
2023-03-10T17:33:49.044Z,58.70
2023-03-10T17:35:22.204Z,58.60
2023-03-10T17:36:55.306Z,58.40
2023-03-10T17:38:29.712Z,58.50
2023-03-10T17:40:02.996Z,58.20
2023-03-10T17:41:37.728Z,57.80
2023-03-10T17:43:23.280Z,57.30
2023-03-10T17:45:06.851Z,57.00
2023-03-10T17:46:41.785Z,56.70
2023-03-10T17:48:14.873Z,56.70
2023-03-10T17:49:48.270Z,57.60
2023-03-10T17:51:24.878Z,57.50
2023-03-10T17:52:57.923Z,57.20
2023-03-10T17:54:32.967Z,57.20
2023-03-10T17:56:07.698Z,57.00
2023-03-10T17:57:41.163Z,57.10
2023-03-10T17:59:16.061Z,57.00
2023-03-10T18:00:50.016Z,57.00
2023-03-10T18:02:23.253Z,57.20
2023-03-10T18:03:57.632Z,57.30
2023-03-10T18:05:30.758Z,57.40
2023-03-10T18:07:03.983Z,57.40
2023-03-10T18:08:37.086Z,57.30
2023-03-10T18:10:12.788Z,57.50
2023-03-10T18:11:45.851Z,57.70
2023-03-10T18:13:19.031Z,57.70
2023-03-10T18:14:52.302Z,57.50
2023-03-10T18:16:27.907Z,57.50
2023-03-10T18:18:01.463Z,57.60
2023-03-10T18:19:34.533Z,57.70
2023-03-10T18:21:09.884Z,57.90
2023-03-10T18:22:42.929Z,57.90
2023-03-10T18:24:16.851Z,58.00
2023-03-10T18:25:52.319Z,58.20
2023-03-10T18:27:25.568Z,58.30
2023-03-10T18:28:59.355Z,58.40
2023-03-10T18:30:32.499Z,58.30
2023-03-10T18:32:06.165Z,58.30
2023-03-10T18:33:39.380Z,58.40
2023-03-10T18:35:12.927Z,58.30
2023-03-10T18:36:46.081Z,58.20
2023-03-10T18:38:21.047Z,58.20
2023-03-10T18:39:54.103Z,58.30
2023-03-10T18:41:32.569Z,58.40
2023-03-10T18:43:05.920Z,58.50
2023-03-10T18:44:39.535Z,58.50
2023-03-10T18:46:12.740Z,58.50
2023-03-10T18:47:46.955Z,58.30
2023-03-10T18:49:20.145Z,58.40
2023-03-10T18:50:53.861Z,58.30
2023-03-10T18:52:27.066Z,58.30
2023-03-10T18:54:00.353Z,58.50
2023-03-10T18:55:33.529Z,58.70
2023-03-10T18:57:07.973Z,58.70
2023-03-10T18:58:41.085Z,58.70
2023-03-10T19:00:16.372Z,58.80
2023-03-10T19:01:49.491Z,58.90
2023-03-10T19:03:23.242Z,59.00
2023-03-10T19:04:59.405Z,59.30
2023-03-10T19:06:33.538Z,59.40
2023-03-10T19:08:07.731Z,59.40
2023-03-10T19:09:41.103Z,59.40
2023-03-10T19:11:15.148Z,59.30
2023-03-10T19:12:49.677Z,59.30
2023-03-10T19:14:22.909Z,59.30
2023-03-10T19:15:58.728Z,59.30
2023-03-10T19:17:33.154Z,59.30
2023-03-10T19:19:06.658Z,59.30
2023-03-10T19:20:39.855Z,59.30
2023-03-10T19:22:13.567Z,59.40
2023-03-10T19:23:46.760Z,59.60
2023-03-10T19:25:21.116Z,59.60
2023-03-10T19:26:54.597Z,59.80
2023-03-10T19:28:29.812Z,60.00
2023-03-10T19:30:03.036Z,60.20
2023-03-10T19:31:36.432Z,60.00
2023-03-10T19:33:10.021Z,60.20
2023-03-10T19:34:43.117Z,60.40
2023-03-10T19:36:18.120Z,60.60
2023-03-10T19:37:51.253Z,60.80
2023-03-10T19:39:24.451Z,61.70
2023-03-10T19:40:57.680Z,60.90
2023-03-10T19:42:30.957Z,60.70
2023-03-10T19:44:05.631Z,60.60
2023-03-10T19:45:38.820Z,60.50
2023-03-10T19:47:12.411Z,60.40
2023-03-10T19:48:46.188Z,60.30
2023-03-10T19:50:20.304Z,60.30
2023-03-10T19:51:53.921Z,60.40
2023-03-10T19:53:30.433Z,60.60
2023-03-10T19:55:03.549Z,60.70
2023-03-10T19:56:36.672Z,60.70
2023-03-10T19:58:09.881Z,60.40
2023-03-10T19:59:44.566Z,60.10
2023-03-10T20:01:22.635Z,60.10
2023-03-10T20:02:56.684Z,60.20
2023-03-10T20:04:34.596Z,60.20
2023-03-10T20:06:08.020Z,60.30
2023-03-10T20:07:41.952Z,60.30
2023-03-10T20:09:15.102Z,60.30
2023-03-10T20:10:48.247Z,60.30
2023-03-10T20:12:21.778Z,60.30
2023-03-10T20:13:55.020Z,60.20
2023-03-10T20:15:29.852Z,60.10
2023-03-10T20:17:03.094Z,60.20
2023-03-10T20:18:36.236Z,60.20
2023-03-10T20:20:12.250Z,60.20
2023-03-10T20:21:45.798Z,60.20
2023-03-10T20:23:19.182Z,60.10
2023-03-10T20:24:52.909Z,60.20
2023-03-10T20:26:26.190Z,60.30
2023-03-10T20:27:59.345Z,60.30
2023-03-10T20:29:32.853Z,60.30
2023-03-10T20:31:07.495Z,60.40
2023-03-10T20:32:41.160Z,60.50
2023-03-10T20:34:22.085Z,60.60
2023-03-10T20:35:55.968Z,60.70
2023-03-10T20:37:29.154Z,60.70
2023-03-10T20:39:02.497Z,60.70
2023-03-10T20:40:38.302Z,60.60
2023-03-10T20:42:11.505Z,60.60
2023-03-10T20:43:45.510Z,60.70